Time;durP1;ratioP1;P1;durP2;ratioP2;P2;SDS_P1;SDS_P2;PMS_P1;PMS_P2;Temp;Humidity;BMP_temperature;BMP_pressure;BME280_temperature;BME280_humidity;BME280_pressure;Samples;Min_cycle;Max_cycle;Signal;HPM_P1;HPM_P2
2023/12/27 00:02:10;;;;;;;0.30;0.30;;;3.70;99.90;;;;;;5022321;28;20423;-86
2023/12/27 00:04:36;;;;;;;0.40;0.40;;;3.70;99.90;;;;;;5011744;28;20242;-86
2023/12/27 00:07:01;;;;;;;0.30;0.30;;;3.60;99.90;;;;;;5021861;28;20475;-86
2023/12/27 00:09:27;;;;;;;0.30;0.30;;;3.50;99.90;;;;;;5009800;28;20690;-86
2023/12/27 00:11:52;;;;;;;0.30;0.30;;;3.60;99.90;;;;;;5028459;28;20179;-86
2023/12/27 00:14:18;;;;;;;0.30;0.30;;;3.50;99.90;;;;;;5029120;28;20231;-86
2023/12/27 00:16:43;;;;;;;0.33;0.33;;;3.50;99.90;;;;;;5008768;28;20191;-85
2023/12/27 00:19:09;;;;;;;0.40;0.40;;;3.50;99.90;;;;;;5033214;28;20190;-86
2023/12/27 00:21:35;;;;;;;0.30;0.30;;;3.50;99.90;;;;;;5015135;28;20314;-87
2023/12/27 00:24:01;;;;;;;0.30;0.30;;;3.50;99.90;;;;;;5009545;28;20184;-85
2023/12/27 00:26:27;;;;;;;0.30;0.30;;;3.60;99.90;;;;;;5042252;28;21009;-85
2023/12/27 00:28:52;;;;;;;0.30;0.30;;;3.60;99.90;;;;;;5048615;28;20230;-86
2023/12/27 00:31:18;;;;;;;0.40;0.40;;;3.50;99.90;;;;;;5030331;28;20239;-86
2023/12/27 00:33:43;;;;;;;0.30;0.30;;;3.60;99.90;;;;;;5014192;28;20183;-86
2023/12/27 00:36:09;;;;;;;0.20;0.20;;;3.60;99.90;;;;;;5036417;28;20196;-85
2023/12/27 00:38:36;;;;;;;0.30;0.30;;;3.60;99.90;;;;;;5044788;28;20182;-85
2023/12/27 00:41:03;;;;;;;0.40;0.40;;;3.60;99.90;;;;;;5044409;28;20202;-86
2023/12/27 00:43:28;;;;;;;0.30;0.30;;;3.60;99.90;;;;;;5010615;28;20522;-85
2023/12/27 00:45:54;;;;;;;0.30;0.30;;;3.60;99.90;;;;;;5023235;28;20517;-86
2023/12/27 00:48:19;;;;;;;0.30;0.30;;;3.60;99.90;;;;;;5042258;28;20202;-86
2023/12/27 00:50:45;;;;;;;0.33;0.33;;;3.60;99.90;;;;;;5025275;28;21477;-86
2023/12/27 00:53:10;;;;;;;0.30;0.30;;;3.60;99.90;;;;;;5037911;28;20194;-86
2023/12/27 00:55:36;;;;;;;0.40;0.40;;;3.60;99.90;;;;;;5027513;28;20237;-85
2023/12/27 00:58:02;;;;;;;0.30;0.30;;;3.60;99.90;;;;;;5027858;28;20215;-85
2023/12/27 01:00:28;;;;;;;0.40;0.40;;;3.60;99.90;;;;;;5033033;28;20461;-85
2023/12/27 01:02:53;;;;;;;0.40;0.40;;;3.60;99.90;;;;;;5041076;28;20267;-85
2023/12/27 01:05:19;;;;;;;0.30;0.30;;;3.60;99.90;;;;;;5046886;28;20269;-86
2023/12/27 01:07:44;;;;;;;0.30;0.30;;;3.60;99.90;;;;;;5048309;28;20218;-86
2023/12/27 01:10:10;;;;;;;0.30;0.30;;;3.60;99.90;;;;;;5010907;28;20620;-86
2023/12/27 01:12:35;;;;;;;0.30;0.30;;;3.60;99.90;;;;;;5029322;28;20283;-85
2023/12/27 01:15:01;;;;;;;0.40;0.40;;;3.60;99.90;;;;;;5028152;28;20196;-85
2023/12/27 01:17:26;;;;;;;0.40;0.40;;;3.70;99.90;;;;;;5010390;28;20184;-85
2023/12/27 01:19:52;;;;;;;0.30;0.30;;;3.70;99.90;;;;;;5049705;28;20651;-85
2023/12/27 01:22:17;;;;;;;0.30;0.30;;;3.70;99.90;;;;;;5024103;28;20244;-86
2023/12/27 01:24:43;;;;;;;0.30;0.30;;;3.70;99.90;;;;;;5022648;28;20763;-86
2023/12/27 01:27:08;;;;;;;0.30;0.30;;;3.70;99.90;;;;;;5026331;28;20220;-86
2023/12/27 01:29:34;;;;;;;0.37;0.37;;;3.70;99.90;;;;;;5015161;28;20211;-85
2023/12/27 01:31:59;;;;;;;0.37;0.37;;;3.60;99.90;;;;;;5024017;28;20198;-85
2023/12/27 01:34:25;;;;;;;0.40;0.40;;;3.60;99.90;;;;;;5019269;28;20271;-85
2023/12/27 01:36:50;;;;;;;0.43;0.43;;;3.70;99.90;;;;;;5017515;28;20226;-85
2023/12/27 01:39:15;;;;;;;0.57;0.57;;;3.60;99.90;;;;;;5029367;28;20221;-86
2023/12/27 01:41:41;;;;;;;0.43;0.43;;;3.60;99.90;;;;;;5042073;28;20237;-85
2023/12/27 01:44:06;;;;;;;0.40;0.40;;;3.70;99.90;;;;;;5037210;28;20901;-86
2023/12/27 01:46:32;;;;;;;0.47;0.47;;;3.70;99.90;;;;;;5048247;28;20226;-86
2023/12/27 01:48:58;;;;;;;0.50;0.50;;;3.60;99.90;;;;;;5013458;28;20188;-85
2023/12/27 01:51:25;;;;;;;0.50;0.50;;;3.60;99.90;;;;;;5005882;28;20180;-85
2023/12/27 01:53:51;;;;;;;0.50;0.50;;;3.60;99.90;;;;;;5015907;28;20424;-85
2023/12/27 01:56:17;;;;;;;0.50;0.50;;;3.60;99.90;;;;;;5040904;28;20433;-85
2023/12/27 01:58:42;;;;;;;0.50;0.50;;;3.60;99.90;;;;;;5031676;28;20438;-85
2023/12/27 02:01:08;;;;;;;0.70;0.70;;;3.60;99.90;;;;;;5016836;28;20611;-85
2023/12/27 02:03:33;;;;;;;0.50;0.50;;;3.50;99.90;;;;;;5031574;28;20586;-86
2023/12/27 02:06:00;;;;;;;0.50;0.50;;;3.60;99.90;;;;;;5036938;28;20271;-86
2023/12/27 02:08:26;;;;;;;0.50;0.50;;;3.50;99.90;;;;;;5047646;28;20804;-86
2023/12/27 02:10:52;;;;;;;0.50;0.50;;;3.50;99.90;;;;;;5021553;28;20423;-86
2023/12/27 02:13:19;;;;;;;0.60;0.60;;;3.50;99.90;;;;;;5012197;28;20427;-86
2023/12/27 02:15:46;;;;;;;0.63;0.63;;;3.50;99.90;;;;;;5022536;28;20598;-86
2023/12/27 02:18:12;;;;;;;0.50;0.50;;;3.60;99.90;;;;;;5018935;28;20462;-86
2023/12/27 02:20:39;;;;;;;0.60;0.60;;;3.50;99.90;;;;;;5032001;28;20476;-84
2023/12/27 02:23:07;;;;;;;0.50;0.50;;;3.50;99.90;;;;;;5016389;28;20434;-86
2023/12/27 02:25:34;;;;;;;0.50;0.50;;;3.50;99.90;;;;;;5039906;28;20445;-86
2023/12/27 02:27:59;;;;;;;0.50;0.50;;;3.50;99.90;;;;;;5030702;28;20478;-86
2023/12/27 02:30:25;;;;;;;0.60;0.60;;;3.50;99.90;;;;;;5030092;28;20933;-85
2023/12/27 02:32:51;;;;;;;0.60;0.60;;;3.50;99.90;;;;;;5028999;28;20192;-86
2023/12/27 02:35:18;;;;;;;0.50;0.50;;;3.50;99.90;;;;;;5029698;28;20278;-86
2023/12/27 02:37:43;;;;;;;0.60;0.60;;;3.50;99.90;;;;;;5030951;28;20484;-86
2023/12/27 02:40:09;;;;;;;0.60;0.60;;;3.50;99.90;;;;;;5023040;28;20423;-86
2023/12/27 02:42:36;;;;;;;0.50;0.50;;;3.50;99.90;;;;;;5043523;28;20191;-86
2023/12/27 02:45:02;;;;;;;0.60;0.60;;;3.50;99.90;;;;;;5027748;28;21273;-86
2023/12/27 02:47:28;;;;;;;0.50;0.50;;;3.50;99.90;;;;;;5028833;28;20569;-83
2023/12/27 02:49:53;;;;;;;0.60;0.60;;;3.50;99.90;;;;;;5029235;28;20505;-86
2023/12/27 02:52:19;;;;;;;0.60;0.60;;;3.50;99.90;;;;;;5028610;28;20265;-86
2023/12/27 02:54:44;;;;;;;0.60;0.60;;;3.50;99.90;;;;;;5030496;28;20179;-85
2023/12/27 02:57:10;;;;;;;0.57;0.57;;;3.50;99.90;;;;;;5032422;28;20657;-86
2023/12/27 02:59:35;;;;;;;0.60;0.60;;;3.50;99.90;;;;;;5038006;28;20176;-86
2023/12/27 03:02:01;;;;;;;0.60;0.60;;;3.50;99.90;;;;;;5001804;28;20184;-86
2023/12/27 03:04:26;;;;;;;0.60;0.60;;;3.50;99.90;;;;;;5023354;28;20240;-85
2023/12/27 03:06:52;;;;;;;0.60;0.60;;;3.50;99.90;;;;;;5020770;28;20215;-85
2023/12/27 03:09:17;;;;;;;0.60;0.60;;;3.50;99.90;;;;;;5041133;28;20191;-85
2023/12/27 03:11:43;;;;;;;0.60;0.60;;;3.40;99.90;;;;;;5025525;28;20217;-86
2023/12/27 03:14:08;;;;;;;0.80;0.80;;;3.40;99.90;;;;;;5050075;28;20181;-86
2023/12/27 03:16:34;;;;;;;1.73;1.63;;;3.30;99.90;;;;;;5021885;28;20216;-86
2023/12/27 03:18:59;;;;;;;0.77;0.77;;;3.30;99.90;;;;;;5015664;28;20196;-86
2023/12/27 03:21:25;;;;;;;0.60;0.60;;;3.30;99.90;;;;;;5030908;28;20227;-84
2023/12/27 03:23:51;;;;;;;0.60;0.60;;;3.20;99.90;;;;;;5030870;28;20187;-83
2023/12/27 03:26:17;;;;;;;0.60;0.60;;;3.30;99.90;;;;;;5040860;28;20480;-83
2023/12/27 03:28:42;;;;;;;0.60;0.60;;;3.20;99.90;;;;;;5048021;28;20639;-84
2023/12/27 03:31:08;;;;;;;0.60;0.60;;;3.10;99.90;;;;;;5047001;28;20698;-83
2023/12/27 03:33:33;;;;;;;2.70;1.57;;;3.20;99.90;;;;;;5038594;28;20179;-84
2023/12/27 03:35:59;;;;;;;0.70;0.70;;;3.20;99.90;;;;;;5031816;28;20530;-84
2023/12/27 03:38:24;;;;;;;0.60;0.60;;;3.20;99.90;;;;;;5040979;28;20188;-83
2023/12/27 03:40:50;;;;;;;1.10;1.10;;;3.10;99.90;;;;;;5031346;28;20184;-84
2023/12/27 03:43:16;;;;;;;0.70;0.70;;;3.20;99.90;;;;;;5039813;28;20187;-83
2023/12/27 03:45:41;;;;;;;1.23;1.13;;;3.20;99.90;;;;;;5039865;28;20604;-83
2023/12/27 03:48:07;;;;;;;0.60;0.60;;;3.20;99.90;;;;;;5035690;28;20218;-84
2023/12/27 03:50:33;;;;;;;0.80;0.80;;;3.20;99.90;;;;;;5033450;28;20188;-84
2023/12/27 03:52:58;;;;;;;0.83;0.83;;;3.20;99.90;;;;;;5038974;28;20184;-84
2023/12/27 03:55:25;;;;;;;0.70;0.70;;;3.10;99.90;;;;;;5035867;28;20215;-83
2023/12/27 03:57:51;;;;;;;0.70;0.70;;;3.10;99.90;;;;;;5048694;28;20185;-83
2023/12/27 04:00:16;;;;;;;0.60;0.60;;;3.10;99.90;;;;;;5018831;28;20426;-83
2023/12/27 04:02:42;;;;;;;1.90;1.47;;;3.20;99.90;;;;;;5044086;28;20210;-83
2023/12/27 04:05:08;;;;;;;0.60;0.60;;;3.20;99.90;;;;;;5044195;28;20655;-84
2023/12/27 04:07:34;;;;;;;1.53;1.43;;;3.20;99.90;;;;;;5028623;28;20219;-84
2023/12/27 04:10:00;;;;;;;0.60;0.60;;;3.20;99.90;;;;;;5039814;28;20425;-83
2023/12/27 04:12:25;;;;;;;0.60;0.60;;;3.20;99.90;;;;;;5045653;28;20203;-84
2023/12/27 04:14:51;;;;;;;0.60;0.60;;;3.30;99.90;;;;;;5047360;28;20202;-83
2023/12/27 04:17:16;;;;;;;0.70;0.70;;;3.30;99.90;;;;;;5048307;28;20214;-83
2023/12/27 04:19:42;;;;;;;1.00;1.00;;;3.30;99.90;;;;;;5029261;28;20223;-86
2023/12/27 04:22:08;;;;;;;0.60;0.60;;;3.30;99.90;;;;;;5012377;28;20230;-86
2023/12/27 04:24:34;;;;;;;0.70;0.70;;;3.30;99.90;;;;;;5027525;28;20175;-86
2023/12/27 04:26:59;;;;;;;0.60;0.60;;;3.30;99.90;;;;;;5038543;28;20468;-86
2023/12/27 04:29:25;;;;;;;0.50;0.50;;;3.30;99.90;;;;;;5012113;28;20194;-86
2023/12/27 04:31:50;;;;;;;0.60;0.60;;;3.40;99.90;;;;;;5042153;28;20209;-86
2023/12/27 04:34:16;;;;;;;8.80;2.20;;;3.40;99.90;;;;;;5025754;28;20262;-85
2023/12/27 04:36:42;;;;;;;0.60;0.60;;;3.30;99.90;;;;;;5030022;28;20175;-87
2023/12/27 04:39:07;;;;;;;0.87;0.87;;;3.30;99.90;;;;;;5025107;28;20225;-86
2023/12/27 04:41:33;;;;;;;0.60;0.60;;;3.30;99.90;;;;;;5021083;28;20429;-86
2023/12/27 04:43:58;;;;;;;0.60;0.60;;;3.30;99.90;;;;;;5012261;28;20184;-86
2023/12/27 04:46:24;;;;;;;0.60;0.60;;;3.30;99.90;;;;;;5026771;28;20208;-86
2023/12/27 04:48:49;;;;;;;0.83;0.83;;;3.30;99.90;;;;;;5009012;28;20219;-85
2023/12/27 04:51:15;;;;;;;0.70;0.70;;;3.30;99.90;;;;;;5028235;28;20563;-86
2023/12/27 04:53:40;;;;;;;0.60;0.60;;;3.30;99.90;;;;;;5031106;28;20183;-86
2023/12/27 04:56:06;;;;;;;0.60;0.60;;;3.20;99.90;;;;;;5031964;28;20184;-86
2023/12/27 04:58:35;;;;;;;0.60;0.60;;;3.20;99.90;;;;;;5014816;28;20202;-86
2023/12/27 05:01:03;;;;;;;1.00;1.00;;;3.10;99.90;;;;;;5000341;28;20204;-85
2023/12/27 05:03:29;;;;;;;0.63;0.63;;;3.10;99.90;;;;;;5032723;28;20438;-86
2023/12/27 05:05:54;;;;;;;0.50;0.50;;;3.10;99.90;;;;;;5032966;28;20426;-86
2023/12/27 05:08:20;;;;;;;0.73;0.70;;;3.00;99.90;;;;;;5032352;28;20243;-86
2023/12/27 05:10:46;;;;;;;1.50;0.80;;;3.00;99.90;;;;;;5022142;28;20782;-86
2023/12/27 05:13:11;;;;;;;0.70;0.70;;;2.90;99.90;;;;;;5047264;28;20565;-86
2023/12/27 05:15:37;;;;;;;0.60;0.60;;;3.00;99.90;;;;;;5034095;28;20431;-86
2023/12/27 05:18:03;;;;;;;1.20;1.20;;;3.00;99.90;;;;;;5025626;28;20193;-86
2023/12/27 05:20:28;;;;;;;0.60;0.60;;;2.90;99.90;;;;;;5037229;28;20303;-86
2023/12/27 05:22:54;;;;;;;0.70;0.70;;;2.90;99.90;;;;;;5046001;28;20187;-83
2023/12/27 05:25:19;;;;;;;0.70;0.70;;;2.90;99.90;;;;;;5049589;28;20175;-83
2023/12/27 05:27:45;;;;;;;0.63;0.63;;;2.90;99.90;;;;;;5036923;28;20221;-83
2023/12/27 05:30:11;;;;;;;0.70;0.70;;;2.80;99.90;;;;;;5045351;28;20194;-84
2023/12/27 05:32:36;;;;;;;0.60;0.60;;;2.80;99.90;;;;;;5040110;28;20184;-84
2023/12/27 05:35:02;;;;;;;0.60;0.60;;;2.80;99.90;;;;;;5046737;28;20184;-84
2023/12/27 05:37:28;;;;;;;0.60;0.60;;;2.80;99.90;;;;;;5031378;28;20187;-86
2023/12/27 05:39:53;;;;;;;0.60;0.60;;;2.80;99.90;;;;;;5018694;28;20921;-85
2023/12/27 05:42:19;;;;;;;0.80;0.80;;;2.80;99.90;;;;;;5018096;28;20196;-85
2023/12/27 05:44:44;;;;;;;0.60;0.60;;;2.80;99.90;;;;;;5005270;28;20629;-84
2023/12/27 05:47:10;;;;;;;0.87;0.87;;;2.90;99.90;;;;;;5024933;28;20332;-85
2023/12/27 05:49:35;;;;;;;0.60;0.60;;;2.90;99.90;;;;;;5026324;28;20232;-84
2023/12/27 05:52:01;;;;;;;0.60;0.60;;;2.90;99.90;;;;;;5014283;28;20303;-84
2023/12/27 05:54:27;;;;;;;0.60;0.60;;;2.90;99.90;;;;;;5022430;28;20192;-85
2023/12/27 05:56:53;;;;;;;0.60;0.60;;;2.90;99.90;;;;;;5030660;28;20200;-85
2023/12/27 05:59:19;;;;;;;0.60;0.60;;;2.90;99.90;;;;;;5021698;28;20203;-85
2023/12/27 06:01:52;;;;;;;0.70;0.70;;;2.90;99.90;;;;;;5021506;28;20438;-85
2023/12/27 06:04:18;;;;;;;0.70;0.70;;;2.90;99.90;;;;;;5025615;28;20561;-84
2023/12/27 06:06:44;;;;;;;0.60;0.60;;;2.90;99.90;;;;;;5010890;28;20525;-84
2023/12/27 06:09:10;;;;;;;0.50;0.50;;;2.80;99.90;;;;;;5030404;28;20442;-85
2023/12/27 06:11:37;;;;;;;0.60;0.60;;;2.90;99.90;;;;;;5012802;28;20874;-85
2023/12/27 06:14:03;;;;;;;0.70;0.70;;;2.80;99.90;;;;;;5024392;28;20441;-85
2023/12/27 06:16:28;;;;;;;0.50;0.50;;;2.80;99.90;;;;;;5022430;28;20441;-86
2023/12/27 06:18:56;;;;;;;0.60;0.60;;;2.70;99.90;;;;;;5022093;28;20441;-85
2023/12/27 06:21:22;;;;;;;0.60;0.60;;;2.60;99.90;;;;;;5026388;28;20358;-85
2023/12/27 06:23:47;;;;;;;0.50;0.50;;;2.50;99.90;;;;;;5047651;28;20527;-85
2023/12/27 06:26:13;;;;;;;0.77;0.77;;;2.50;99.90;;;;;;5048728;28;20175;-85
2023/12/27 06:28:39;;;;;;;0.90;0.90;;;2.50;99.90;;;;;;5007338;28;20196;-85
2023/12/27 06:31:05;;;;;;;0.70;0.70;;;2.40;99.90;;;;;;5027837;28;20186;-83
2023/12/27 06:33:31;;;;;;;0.67;0.67;;;2.40;99.90;;;;;;5035343;28;20440;-83
2023/12/27 06:35:56;;;;;;;0.60;0.60;;;2.40;99.90;;;;;;5049804;28;20509;-83
2023/12/27 06:38:22;;;;;;;0.63;0.63;;;2.50;99.90;;;;;;5045661;28;20656;-83
2023/12/27 06:40:47;;;;;;;0.60;0.60;;;2.50;99.90;;;;;;5039207;28;20229;-85
2023/12/27 06:43:13;;;;;;;0.70;0.70;;;2.60;99.90;;;;;;5022698;28;20250;-84
2023/12/27 06:45:38;;;;;;;0.60;0.60;;;2.50;99.90;;;;;;5040430;28;20179;-84
2023/12/27 06:48:04;;;;;;;0.60;0.60;;;2.40;99.90;;;;;;5020548;28;20939;-83
2023/12/27 06:50:30;;;;;;;0.60;0.60;;;2.30;99.90;;;;;;5044614;28;20269;-84
2023/12/27 06:52:55;;;;;;;7.10;2.87;;;2.30;99.90;;;;;;5017686;28;20296;-84
2023/12/27 06:55:22;;;;;;;0.60;0.60;;;2.20;99.90;;;;;;5010953;28;20218;-84
2023/12/27 06:57:49;;;;;;;0.70;0.70;;;2.20;99.90;;;;;;5032766;28;20179;-84
2023/12/27 07:00:15;;;;;;;0.60;0.60;;;2.20;99.90;;;;;;5031513;28;20418;-84
2023/12/27 07:02:41;;;;;;;0.70;0.70;;;2.20;99.90;;;;;;5017265;28;20511;-83
2023/12/27 07:05:07;;;;;;;0.60;0.60;;;2.10;99.90;;;;;;5046039;28;20425;-83
2023/12/27 07:07:33;;;;;;;0.70;0.70;;;2.10;99.90;;;;;;5049049;28;20512;-84
2023/12/27 07:09:59;;;;;;;0.60;0.60;;;2.10;99.90;;;;;;5039666;28;20863;-84
2023/12/27 07:12:24;;;;;;;0.70;0.70;;;2.00;99.90;;;;;;5048392;28;20429;-84
2023/12/27 07:14:50;;;;;;;0.70;0.70;;;2.00;99.90;;;;;;5030881;28;20216;-83
2023/12/27 07:17:16;;;;;;;4.63;1.20;;;2.00;99.90;;;;;;5033085;28;20624;-83
2023/12/27 07:19:42;;;;;;;0.70;0.70;;;2.10;99.90;;;;;;5040798;28;20555;-84
2023/12/27 07:22:07;;;;;;;0.87;0.87;;;2.20;99.90;;;;;;5016733;28;20474;-83
2023/12/27 07:24:33;;;;;;;0.70;0.70;;;2.20;99.90;;;;;;5040427;28;20194;-84
2023/12/27 07:26:58;;;;;;;0.70;0.70;;;2.20;99.90;;;;;;5011870;28;20653;-84
2023/12/27 07:29:24;;;;;;;0.70;0.70;;;2.20;99.90;;;;;;5023141;28;20817;-82
2023/12/27 07:31:49;;;;;;;0.70;0.70;;;2.20;99.90;;;;;;5030876;28;20187;-84
2023/12/27 07:34:16;;;;;;;0.70;0.70;;;2.20;99.90;;;;;;5035606;28;20644;-83
2023/12/27 07:36:41;;;;;;;1.10;1.10;;;2.20;99.90;;;;;;5029714;28;20183;-83
2023/12/27 07:39:09;;;;;;;0.70;0.70;;;2.20;99.90;;;;;;5029329;28;20981;-83
2023/12/27 07:41:35;;;;;;;1.93;1.83;;;2.20;99.90;;;;;;5031082;28;20182;-85
2023/12/27 07:44:00;;;;;;;0.90;0.90;;;2.30;99.90;;;;;;5029379;28;20987;-85
2023/12/27 07:46:26;;;;;;;1.10;1.10;;;2.40;99.90;;;;;;5029256;28;20183;-84
2023/12/27 07:48:51;;;;;;;0.67;0.67;;;2.30;99.90;;;;;;5037450;28;20242;-83
2023/12/27 07:51:17;;;;;;;16.33;1.73;;;2.20;99.90;;;;;;5027611;28;20636;-85
2023/12/27 07:53:43;;;;;;;1.77;0.93;;;2.20;99.90;;;;;;5024855;28;20211;-86
2023/12/27 07:56:10;;;;;;;0.70;0.70;;;2.10;99.90;;;;;;5029352;28;20206;-86
2023/12/27 07:58:36;;;;;;;0.83;0.83;;;2.00;99.90;;;;;;5029199;28;20154;-85
2023/12/27 08:01:01;;;;;;;0.70;0.70;;;2.00;99.90;;;;;;5029001;28;20980;-85
2023/12/27 08:03:27;;;;;;;0.70;0.70;;;2.00;99.90;;;;;;5027778;28;20187;-83
2023/12/27 08:05:53;;;;;;;0.70;0.70;;;2.00;99.90;;;;;;5037166;28;20187;-85
2023/12/27 08:08:18;;;;;;;0.73;0.73;;;2.00;99.90;;;;;;5027346;28;20278;-83
2023/12/27 08:10:44;;;;;;;0.60;0.60;;;1.90;99.90;;;;;;5030398;28;20227;-83
2023/12/27 08:13:09;;;;;;;0.70;0.70;;;1.80;99.90;;;;;;5031032;28;20246;-83
2023/12/27 08:15:35;;;;;;;0.80;0.80;;;2.00;99.90;;;;;;5030256;28;20777;-85
2023/12/27 08:18:03;;;;;;;0.60;0.60;;;2.00;99.90;;;;;;5043465;28;20200;-85
2023/12/27 08:20:29;;;;;;;0.73;0.73;;;2.00;99.90;;;;;;5038617;28;20450;-85
2023/12/27 08:22:55;;;;;;;0.70;0.70;;;1.90;99.90;;;;;;5013027;28;20280;-85
2023/12/27 08:25:20;;;;;;;0.70;0.70;;;1.90;99.90;;;;;;5034672;28;20423;-86
2023/12/27 08:27:46;;;;;;;0.90;0.90;;;2.00;99.90;;;;;;5033278;28;20304;-86
2023/12/27 08:30:13;;;;;;;0.80;0.80;;;2.10;99.90;;;;;;5035986;28;20691;-85
2023/12/27 08:32:38;;;;;;;0.60;0.60;;;2.10;99.90;;;;;;5054117;28;20797;-85
2023/12/27 08:35:04;;;;;;;0.70;0.70;;;2.10;99.90;;;;;;5043638;28;20528;-83
2023/12/27 08:37:30;;;;;;;7.17;1.33;;;2.10;99.90;;;;;;5031172;28;20166;-83
2023/12/27 08:39:55;;;;;;;1.17;1.10;;;2.10;99.90;;;;;;5035333;28;20525;-81
2023/12/27 08:42:21;;;;;;;0.80;0.80;;;2.10;99.90;;;;;;5035893;28;20207;-82
2023/12/27 08:44:47;;;;;;;0.70;0.70;;;2.00;99.90;;;;;;5007586;28;20230;-86
2023/12/27 08:47:12;;;;;;;0.70;0.70;;;2.10;99.90;;;;;;5029292;28;20269;-81
2023/12/27 08:49:38;;;;;;;1.13;1.10;;;2.10;99.90;;;;;;5028576;28;20185;-81
2023/12/27 08:52:04;;;;;;;1.97;1.87;;;2.10;99.90;;;;;;5029106;28;20656;-83
2023/12/27 08:54:29;;;;;;;0.90;0.90;;;2.10;99.90;;;;;;5027890;28;20294;-84
2023/12/27 08:56:55;;;;;;;0.70;0.70;;;2.10;99.90;;;;;;5027002;28;20202;-84
2023/12/27 08:59:21;;;;;;;0.70;0.70;;;2.10;99.90;;;;;;5029781;28;20900;-81
2023/12/27 09:01:46;;;;;;;0.65;0.65;;;2.20;99.90;;;;;;5026654;28;20442;-82
2023/12/27 09:04:12;;;;;;;0.70;0.70;;;2.20;99.90;;;;;;5012368;28;20179;-82
2023/12/27 09:06:37;;;;;;;0.70;0.70;;;2.20;99.90;;;;;;5036436;28;20206;-91
2023/12/27 09:09:03;;;;;;;12.80;1.30;;;2.30;99.90;;;;;;5018070;28;20202;-92
2023/12/27 09:11:28;;;;;;;2.80;1.50;;;2.30;99.90;;;;;;5017833;28;20237;-90
2023/12/27 09:13:54;;;;;;;0.90;0.90;;;2.30;99.90;;;;;;5039400;28;20186;-85
2023/12/27 09:16:19;;;;;;;0.70;0.70;;;2.40;99.90;;;;;;5030448;28;20222;-88
2023/12/27 09:18:45;;;;;;;0.70;0.70;;;2.30;99.90;;;;;;5030481;28;20602;-86
2023/12/27 09:21:11;;;;;;;1.17;1.17;;;2.30;99.90;;;;;;5022743;28;20275;-86
2023/12/27 09:23:37;;;;;;;1.00;1.00;;;2.20;99.90;;;;;;5023415;28;20595;-88
2023/12/27 09:26:02;;;;;;;0.90;0.90;;;2.20;99.90;;;;;;5008320;28;20433;-88
2023/12/27 09:28:28;;;;;;;3.93;1.03;;;2.20;99.90;;;;;;5022265;28;20215;-88
2023/12/27 09:30:54;;;;;;;0.80;0.80;;;2.20;99.90;;;;;;5021320;28;20188;-88
2023/12/27 09:33:20;;;;;;;0.60;0.60;;;2.20;99.90;;;;;;5019900;28;20434;-88
2023/12/27 09:35:45;;;;;;;0.90;0.90;;;2.30;99.90;;;;;;5018451;28;20184;-85
2023/12/27 09:38:11;;;;;;;1.63;1.53;;;2.30;99.90;;;;;;5010894;28;20202;-86
2023/12/27 09:40:36;;;;;;;0.77;0.77;;;2.40;99.90;;;;;;5026916;28;20262;-86
2023/12/27 09:43:06;;;;;;;0.60;0.60;;;2.40;99.90;;;;;;5021377;28;20200;-85
2023/12/27 09:45:36;;;;;;;0.80;0.80;;;2.50;99.90;;;;;;5025994;28;20182;-85
2023/12/27 09:48:04;;;;;;;0.80;0.80;;;2.60;99.90;;;;;;5029464;28;20521;-86
2023/12/27 09:50:30;;;;;;;0.70;0.70;;;2.60;99.90;;;;;;5027038;28;20526;-86
2023/12/27 09:52:56;;;;;;;0.90;0.90;;;2.60;99.90;;;;;;5033059;28;20598;-86
2023/12/27 09:55:22;;;;;;;0.70;0.70;;;2.70;99.90;;;;;;5024591;28;20222;-85
2023/12/27 09:57:49;;;;;;;1.10;1.10;;;2.80;99.90;;;;;;5029798;28;20569;-87
2023/12/27 10:00:16;;;;;;;0.60;0.60;;;2.80;99.90;;;;;;5026655;28;20977;-85
2023/12/27 10:02:44;;;;;;;0.60;0.60;;;2.90;99.90;;;;;;5027786;28;20499;-85
2023/12/27 10:05:22;;;;;;;1.00;1.00;;;2.90;99.90;;;;;;5018376;28;20325;-86
2023/12/27 10:07:47;;;;;;;1.00;1.00;;;3.00;99.90;;;;;;5030308;28;20474;-86
2023/12/27 10:10:14;;;;;;;0.60;0.60;;;3.00;99.90;;;;;;5006357;28;20460;-85
2023/12/27 10:12:40;;;;;;;1.10;1.10;;;3.10;99.90;;;;;;5021913;28;20222;-84
2023/12/27 10:15:08;;;;;;;0.90;0.90;;;3.10;99.90;;;;;;5015110;28;20789;-86
2023/12/27 10:17:33;;;;;;;0.80;0.80;;;3.20;99.90;;;;;;5026347;28;20655;-87
2023/12/27 10:19:59;;;;;;;0.60;0.60;;;3.20;99.90;;;;;;5022924;28;20420;-87
2023/12/27 10:22:26;;;;;;;0.60;0.60;;;3.20;99.90;;;;;;5023590;28;20187;-87
2023/12/27 10:24:52;;;;;;;0.70;0.70;;;3.20;99.90;;;;;;5025392;28;20208;-86
2023/12/27 10:27:17;;;;;;;0.67;0.67;;;3.30;99.90;;;;;;5015204;28;20535;-86
2023/12/27 10:29:47;;;;;;;0.50;0.50;;;3.30;99.90;;;;;;5025747;28;20186;-86
2023/12/27 10:32:16;;;;;;;0.63;0.63;;;3.30;99.90;;;;;;5023964;28;20198;-87
2023/12/27 10:34:41;;;;;;;1.00;1.00;;;3.20;99.90;;;;;;5024580;28;20453;-87
2023/12/27 10:37:11;;;;;;;0.60;0.60;;;3.10;99.90;;;;;;5008769;28;20458;-86
2023/12/27 10:39:44;;;;;;;0.60;0.60;;;3.10;99.90;;;;;;5027552;28;20184;-86
2023/12/27 10:42:17;;;;;;;0.60;0.60;;;3.10;99.90;;;;;;5023670;28;20796;-86
2023/12/27 10:44:46;;;;;;;0.70;0.70;;;3.10;99.90;;;;;;5028768;28;20473;-86
2023/12/27 10:47:16;;;;;;;0.70;0.70;;;3.20;99.90;;;;;;5008709;28;20490;-87
2023/12/27 10:49:45;;;;;;;0.50;0.50;;;3.10;99.90;;;;;;5027386;28;20922;-87
2023/12/27 10:52:12;;;;;;;0.87;0.80;;;3.10;99.90;;;;;;5028168;28;20474;-86
2023/12/27 10:54:42;;;;;;;0.80;0.80;;;3.10;99.90;;;;;;5019069;28;20438;-87
2023/12/27 10:57:15;;;;;;;0.70;0.70;;;3.10;99.90;;;;;;5008588;28;20435;-86
2023/12/27 10:59:42;;;;;;;2.33;2.23;;;3.20;99.90;;;;;;5029248;28;20446;-86
2023/12/27 11:02:08;;;;;;;0.70;0.70;;;3.10;99.90;;;;;;5028786;28;20415;-85
2023/12/27 11:04:36;;;;;;;0.60;0.60;;;3.10;99.90;;;;;;5024444;28;20447;-86
2023/12/27 11:07:03;;;;;;;0.70;0.70;;;3.10;99.90;;;;;;5017823;28;20560;-86
2023/12/27 11:09:31;;;;;;;1.03;1.03;;;3.10;99.90;;;;;;5029338;28;20509;-87
2023/12/27 11:11:58;;;;;;;0.80;0.80;;;3.00;99.90;;;;;;5004620;28;20696;-86
2023/12/27 11:14:24;;;;;;;0.60;0.60;;;3.10;99.90;;;;;;5017735;28;20434;-86
2023/12/27 11:16:54;;;;;;;0.60;0.60;;;3.10;99.90;;;;;;5007801;28;20426;-86
2023/12/27 11:19:22;;;;;;;1.10;1.10;;;3.20;99.90;;;;;;5008607;28;20437;-93
2023/12/27 11:21:47;;;;;;;0.63;0.63;;;3.20;99.90;;;;;;5030158;28;20438;-93
2023/12/27 11:24:13;;;;;;;0.60;0.60;;;3.20;99.90;;;;;;5034060;28;20485;-94
2023/12/27 11:26:39;;;;;;;0.93;0.93;;;3.30;99.90;;;;;;5033140;28;20695;-93
2023/12/27 11:29:09;;;;;;;1.37;1.37;;;3.30;99.90;;;;;;5014401;28;20442;-94
2023/12/27 11:31:37;;;;;;;1.23;1.23;;;3.30;99.90;;;;;;5034700;28;20164;-93
2023/12/27 11:34:04;;;;;;;0.90;0.90;;;3.40;99.90;;;;;;5045455;28;20417;-93
2023/12/27 11:36:30;;;;;;;0.80;0.80;;;3.50;99.90;;;;;;5038278;28;20441;-93
2023/12/27 11:38:55;;;;;;;0.70;0.70;;;3.50;99.90;;;;;;5019583;28;20939;-94
2023/12/27 11:41:21;;;;;;;0.67;0.67;;;3.60;99.90;;;;;;5034364;28;20194;-94
2023/12/27 11:43:57;;;;;;;0.70;0.70;;;3.50;99.90;;;;;;5017397;28;20179;-94
2023/12/27 11:46:27;;;;;;;0.70;0.70;;;3.50;99.90;;;;;;5043198;28;20520;-94
2023/12/27 11:48:52;;;;;;;0.90;0.90;;;3.50;99.90;;;;;;5033699;28;20493;-93
2023/12/27 11:51:32;;;;;;;1.80;1.10;;;3.50;99.90;;;;;;5031179;28;20948;-93
2023/12/27 11:53:58;;;;;;;0.80;0.80;;;3.60;99.90;;;;;;5027980;28;20456;-93
2023/12/27 11:56:32;;;;;;;1.97;1.87;;;3.50;99.90;;;;;;5029759;28;20442;-93
2023/12/27 11:59:03;;;;;;;2.40;1.73;;;3.60;99.90;;;;;;5029538;28;20957;-93
2023/12/27 12:01:36;;;;;;;1.37;1.27;;;3.70;99.90;;;;;;5029318;28;20430;-94
2023/12/27 12:04:09;;;;;;;1.13;1.13;;;3.70;99.90;;;;;;5030054;28;20446;-93
2023/12/27 12:06:53;;;;;;;0.67;0.67;;;3.60;99.90;;;;;;5031599;28;20479;-94
2023/12/27 12:09:27;;;;;;;1.37;1.37;;;3.70;99.90;;;;;;5013210;28;20529;-93
2023/12/27 12:11:53;;;;;;;0.97;0.83;;;3.60;99.90;;;;;;5030629;28;20457;-93
2023/12/27 12:14:20;;;;;;;0.70;0.70;;;3.60;99.90;;;;;;5029413;28;20450;-93
2023/12/27 12:16:46;;;;;;;1.70;1.10;;;3.60;99.90;;;;;;5037011;28;20484;-94
2023/12/27 12:19:15;;;;;;;0.60;0.60;;;3.60;99.90;;;;;;5019800;28;20472;-93
2023/12/27 12:21:41;;;;;;;0.90;0.90;;;3.60;99.90;;;;;;5031731;28;20273;-93
2023/12/27 12:24:10;;;;;;;0.60;0.60;;;3.60;99.90;;;;;;5036113;28;20437;-91
2023/12/27 12:26:36;;;;;;;0.60;0.60;;;3.60;99.90;;;;;;5015532;28;20180;-93
2023/12/27 12:29:05;;;;;;;0.60;0.60;;;3.60;99.90;;;;;;5021832;28;20441;-92
2023/12/27 12:31:31;;;;;;;0.70;0.70;;;3.60;99.90;;;;;;5028724;28;20530;-93
2023/12/27 12:33:57;;;;;;;0.60;0.60;;;3.70;99.90;;;;;;5031060;28;20497;-94
2023/12/27 12:36:23;;;;;;;0.60;0.60;;;3.70;99.90;;;;;;5035323;28;20187;-94
2023/12/27 12:38:49;;;;;;;1.70;1.60;;;3.60;99.90;;;;;;5033871;28;20440;-93
2023/12/27 12:41:15;;;;;;;0.80;0.80;;;3.60;99.90;;;;;;5025212;28;20415;-94
2023/12/27 12:43:40;;;;;;;1.70;1.57;;;3.60;99.90;;;;;;5040544;28;20269;-92
2023/12/27 12:46:07;;;;;;;0.80;0.80;;;3.60;99.90;;;;;;5037449;28;20175;-93
2023/12/27 12:48:33;;;;;;;0.70;0.70;;;3.60;99.90;;;;;;5025385;28;20223;-93
2023/12/27 12:51:12;;;;;;;0.60;0.60;;;3.60;99.90;;;;;;5031928;28;20430;-94
2023/12/27 12:53:38;;;;;;;0.60;0.60;;;3.60;99.90;;;;;;5025395;28;20438;-93